createdAt,value
2018-10-12T00:02:13.542Z,20.73
2018-10-12T00:04:47.500Z,19.93
2018-10-12T00:07:21.383Z,19.60
2018-10-12T00:09:55.250Z,19.87
2018-10-12T00:12:29.194Z,19.10
2018-10-12T00:15:03.055Z,18.50
2018-10-12T00:17:37.033Z,17.93
2018-10-12T00:20:11.043Z,18.23
2018-10-12T00:22:44.865Z,17.47
2018-10-12T00:25:18.643Z,18.07
2018-10-12T00:27:52.353Z,17.53
2018-10-12T00:30:26.205Z,17.73
2018-10-12T00:33:00.146Z,17.93
2018-10-12T00:35:33.943Z,17.90
2018-10-12T00:38:07.817Z,17.27
2018-10-12T00:40:41.776Z,17.67
2018-10-12T00:43:15.707Z,17.43
2018-10-12T00:45:49.512Z,18.07
2018-10-12T00:48:23.477Z,17.20
2018-10-12T00:50:57.456Z,17.03
2018-10-12T00:53:31.388Z,17.50
2018-10-12T00:56:05.240Z,17.13
2018-10-12T00:58:39.108Z,17.40
2018-10-12T01:01:13.128Z,17.50
2018-10-12T01:03:46.728Z,17.37
2018-10-12T01:06:20.711Z,18.13
2018-10-12T01:08:54.739Z,16.43
2018-10-12T01:11:28.650Z,16.37
2018-10-12T01:14:02.569Z,16.17
2018-10-12T01:16:36.590Z,16.67
2018-10-12T01:19:10.291Z,16.50
2018-10-12T01:21:44.280Z,17.23
2018-10-12T01:24:18.036Z,16.67
2018-10-12T01:26:52.273Z,16.03
2018-10-12T01:29:27.943Z,15.77
2018-10-12T01:32:02.521Z,16.07
2018-10-12T01:34:37.210Z,15.10
2018-10-12T01:37:11.204Z,15.73
2018-10-12T01:39:45.791Z,15.00
2018-10-12T01:42:20.099Z,15.80
2018-10-12T01:44:53.936Z,16.13
2018-10-12T01:47:29.020Z,14.07
2018-10-12T01:50:02.793Z,15.90
2018-10-12T01:52:36.783Z,15.40
2018-10-12T01:55:10.864Z,16.23
2018-10-12T01:57:44.669Z,15.23
2018-10-12T02:00:18.632Z,15.37
2018-10-12T02:02:52.709Z,14.60
2018-10-12T02:05:26.444Z,15.20
2018-10-12T02:08:00.488Z,14.20
2018-10-12T02:10:34.474Z,15.07
2018-10-12T02:13:08.429Z,14.67
2018-10-12T02:15:42.328Z,14.80
2018-10-12T02:18:16.344Z,15.13
2018-10-12T02:20:50.138Z,14.70
2018-10-12T02:23:24.118Z,14.00
2018-10-12T02:25:58.101Z,14.47
2018-10-12T02:28:31.865Z,14.07
2018-10-12T02:31:06.396Z,15.17
2018-10-12T02:33:40.264Z,13.87
2018-10-12T02:36:14.151Z,14.77
2018-10-12T02:38:48.073Z,14.63
2018-10-12T02:41:21.971Z,14.13
2018-10-12T02:43:55.889Z,15.40
2018-10-12T02:46:29.890Z,15.27
2018-10-12T02:49:03.905Z,14.30
2018-10-12T02:51:37.986Z,13.93
2018-10-12T02:54:11.902Z,14.17
2018-10-12T02:56:45.973Z,16.67
2018-10-12T02:59:19.873Z,15.47
2018-10-12T03:01:53.650Z,13.90
2018-10-12T03:04:27.535Z,15.50
2018-10-12T03:07:01.494Z,15.93
2018-10-12T03:09:35.430Z,15.50
2018-10-12T03:12:09.513Z,15.63
2018-10-12T03:14:43.279Z,15.10
2018-10-12T03:17:17.317Z,16.17
2018-10-12T03:19:51.229Z,16.90
2018-10-12T03:22:25.129Z,14.87
2018-10-12T03:24:59.029Z,15.13
2018-10-12T03:27:38.417Z,16.37
2018-10-12T03:30:12.383Z,16.13
2018-10-12T03:32:46.473Z,15.53
2018-10-12T03:35:20.346Z,15.43
2018-10-12T03:37:54.362Z,16.00
2018-10-12T03:40:28.281Z,18.90
2018-10-12T03:43:02.355Z,16.70
2018-10-12T03:45:36.205Z,16.73
2018-10-12T03:48:10.087Z,16.03
2018-10-12T03:50:44.046Z,16.13
2018-10-12T03:53:18.233Z,16.37
2018-10-12T03:55:52.091Z,16.77
2018-10-12T03:58:26.019Z,15.93
2018-10-12T04:00:59.830Z,15.97
2018-10-12T04:03:33.514Z,17.00
2018-10-12T04:06:07.399Z,15.80
2018-10-12T04:08:41.155Z,15.73
2018-10-12T04:11:15.026Z,16.63
2018-10-12T04:13:49.015Z,16.57
2018-10-12T04:16:22.881Z,16.37
2018-10-12T04:18:56.892Z,17.90
2018-10-12T04:21:31.011Z,14.80
2018-10-12T04:24:05.450Z,19.47
2018-10-12T04:26:39.914Z,16.87
2018-10-12T04:29:14.271Z,17.33
2018-10-12T04:31:48.253Z,16.27
2018-10-12T04:34:29.028Z,16.57
2018-10-12T04:37:03.029Z,16.30
2018-10-12T04:39:42.552Z,15.37
2018-10-12T04:42:16.707Z,16.17
2018-10-12T04:44:50.839Z,16.00
2018-10-12T04:47:26.505Z,17.47
2018-10-12T04:50:01.129Z,18.43
2018-10-12T04:52:35.145Z,18.97
2018-10-12T04:55:09.060Z,23.03
2018-10-12T04:57:42.940Z,18.30
2018-10-12T05:00:16.763Z,19.80
2018-10-12T05:02:50.670Z,18.70
2018-10-12T05:05:24.389Z,19.40
2018-10-12T05:07:58.221Z,19.43
2018-10-12T05:10:31.984Z,18.60
2018-10-12T05:13:05.933Z,19.07
2018-10-12T05:15:39.961Z,20.67
2018-10-12T05:18:13.900Z,19.50
2018-10-12T05:20:47.707Z,20.07
2018-10-12T05:23:21.577Z,22.57
2018-10-12T05:25:55.449Z,22.17
2018-10-12T05:28:30.603Z,19.80
2018-10-12T05:31:04.525Z,23.90
2018-10-12T05:33:38.395Z,20.77
2018-10-12T05:36:12.523Z,20.63
2018-10-12T05:38:46.166Z,24.40
2018-10-12T05:41:20.057Z,22.70
2018-10-12T05:43:54.045Z,24.00
2018-10-12T05:46:27.879Z,20.70
2018-10-12T05:49:07.309Z,21.37
2018-10-12T05:51:41.252Z,23.97
2018-10-12T05:54:15.383Z,21.47
2018-10-12T05:56:49.334Z,23.17
2018-10-12T05:59:23.249Z,21.33
2018-10-12T06:01:57.105Z,20.67
2018-10-12T06:04:30.937Z,21.30
2018-10-12T06:07:05.925Z,21.30
2018-10-12T06:09:39.913Z,19.47
2018-10-12T06:12:13.775Z,19.63
2018-10-12T06:14:47.947Z,20.83
2018-10-12T06:17:22.004Z,24.93
2018-10-12T06:19:56.055Z,21.83
2018-10-12T06:22:30.044Z,28.43
2018-10-12T06:25:04.042Z,22.40
2018-10-12T06:27:38.059Z,24.83
2018-10-12T06:30:12.276Z,21.83
2018-10-12T06:32:46.408Z,26.67
2018-10-12T06:35:24.348Z,23.40
2018-10-12T06:37:59.040Z,25.23
2018-10-12T06:40:33.627Z,23.47
2018-10-12T06:43:07.618Z,22.00
2018-10-12T06:45:42.921Z,23.83
2018-10-12T06:48:16.950Z,24.77
2018-10-12T06:50:51.018Z,24.03
2018-10-12T06:53:25.068Z,25.53
2018-10-12T06:55:59.196Z,26.57
2018-10-12T06:58:33.302Z,23.17
2018-10-12T07:01:07.723Z,24.63
2018-10-12T07:03:41.958Z,26.13
2018-10-12T07:06:16.496Z,25.37
2018-10-12T07:08:50.556Z,26.90
2018-10-12T07:11:24.996Z,23.50
2018-10-12T07:13:59.524Z,25.57
2018-10-12T07:16:34.890Z,23.37
2018-10-12T07:19:11.245Z,26.70
2018-10-12T07:21:45.260Z,21.93
2018-10-12T07:27:06.125Z,22.13
2018-10-12T07:29:44.793Z,27.20
2018-10-12T07:32:19.448Z,25.70
2018-10-12T07:35:06.328Z,24.33
2018-10-12T07:37:47.780Z,26.07
2018-10-12T07:40:22.580Z,25.50
2018-10-12T07:42:57.088Z,24.37
2018-10-12T07:45:37.733Z,26.07
2018-10-12T07:48:16.635Z,24.33
2018-10-12T07:51:05.849Z,24.07
2018-10-12T07:53:46.599Z,26.90
2018-10-12T08:08:01.099Z,24.30
2018-10-12T08:20:42.396Z,28.80
2018-10-12T08:36:11.835Z,25.53
2018-10-12T08:38:48.009Z,27.37
2018-10-12T08:41:28.636Z,25.97
2018-10-12T08:46:56.110Z,29.50
2018-10-12T08:53:00.621Z,26.73
2018-10-12T08:59:50.418Z,29.90
2018-10-12T09:02:25.433Z,25.33
2018-10-12T09:05:12.746Z,27.60
2018-10-12T09:09:34.830Z,26.60
2018-10-12T09:17:55.257Z,28.13
2018-10-12T09:27:04.514Z,27.83
2018-10-12T09:33:23.402Z,29.40
2018-10-12T09:38:50.944Z,26.53
2018-10-12T09:47:43.918Z,25.70
2018-10-12T09:50:26.931Z,28.47
2018-10-12T09:53:06.311Z,24.13
2018-10-12T09:55:40.920Z,25.10
2018-10-12T09:58:14.812Z,24.97
2018-10-12T10:00:55.132Z,25.50
2018-10-12T10:06:01.698Z,24.90
2018-10-12T10:11:36.255Z,30.67
2018-10-12T10:14:15.577Z,26.40
2018-10-12T10:16:57.416Z,26.37
2018-10-12T10:19:34.604Z,26.07
2018-10-12T10:22:09.056Z,25.37
2018-10-12T10:24:44.244Z,25.00
2018-10-12T10:27:18.968Z,25.17
2018-10-12T10:29:53.789Z,23.63
2018-10-12T10:32:27.925Z,24.47
2018-10-12T10:35:06.675Z,28.33
2018-10-12T10:40:22.425Z,24.30
2018-10-12T10:48:01.565Z,27.13
2018-10-12T10:50:38.073Z,25.67
2018-10-12T10:53:12.176Z,28.03
2018-10-12T10:55:47.070Z,25.60
2018-10-12T10:58:22.707Z,26.13
2018-10-12T11:00:57.892Z,25.13
2018-10-12T11:06:18.507Z,24.97
2018-10-12T11:08:52.951Z,24.47
2018-10-12T11:11:27.205Z,23.87
2018-10-12T11:14:04.699Z,24.13
2018-10-12T11:16:38.819Z,23.73
2018-10-12T11:19:13.424Z,25.10
2018-10-12T11:21:47.605Z,23.90
2018-10-12T11:24:21.933Z,27.37
2018-10-12T11:26:56.127Z,24.53
2018-10-12T11:29:30.598Z,23.23
2018-10-12T11:34:46.493Z,23.63
2018-10-12T11:37:20.763Z,25.23
2018-10-12T11:39:55.003Z,26.00
2018-10-12T11:42:35.061Z,24.70
2018-10-12T11:45:09.162Z,24.70
2018-10-12T11:47:43.163Z,25.97
2018-10-12T11:50:25.245Z,24.23
2018-10-12T11:52:59.523Z,26.30
2018-10-12T11:55:34.268Z,23.33
2018-10-12T11:58:09.413Z,22.70
2018-10-12T12:03:39.024Z,23.60
2018-10-12T12:06:13.370Z,21.87
2018-10-12T12:08:48.016Z,21.30
2018-10-12T12:11:23.205Z,21.53
2018-10-12T12:13:57.234Z,22.50
2018-10-12T12:16:31.239Z,21.77
2018-10-12T12:19:17.471Z,22.60
2018-10-12T12:21:51.418Z,20.93
2018-10-12T12:24:25.526Z,22.00
2018-10-12T12:26:59.521Z,21.80
2018-10-12T12:29:33.437Z,21.37
2018-10-12T12:32:07.474Z,20.63
2018-10-12T12:34:41.261Z,21.53
2018-10-12T12:37:15.144Z,20.10
2018-10-12T12:39:49.140Z,22.43
2018-10-12T12:42:22.881Z,21.03
2018-10-12T12:44:57.693Z,22.27
2018-10-12T12:47:31.711Z,22.37
2018-10-12T12:50:06.169Z,22.50
2018-10-12T12:52:39.907Z,21.90
2018-10-12T12:55:14.724Z,21.27
2018-10-12T12:57:48.681Z,20.97
2018-10-12T13:00:22.534Z,20.70
2018-10-12T13:02:56.341Z,24.23
2018-10-12T13:05:30.259Z,23.93
2018-10-12T13:08:04.136Z,20.60
2018-10-12T13:10:37.931Z,20.07
2018-10-12T13:13:11.774Z,20.47
2018-10-12T13:15:45.813Z,19.40
2018-10-12T13:18:19.666Z,19.40
2018-10-12T13:20:53.549Z,22.97
2018-10-12T13:23:27.605Z,20.63
2018-10-12T13:26:01.729Z,21.93
2018-10-12T13:28:35.643Z,19.87
2018-10-12T13:31:09.666Z,19.33
2018-10-12T13:33:43.687Z,20.27
2018-10-12T13:36:17.982Z,21.30
2018-10-12T13:38:51.966Z,25.40
2018-10-12T13:41:25.819Z,21.97
2018-10-12T13:43:59.771Z,20.23
2018-10-12T13:46:33.776Z,22.37
2018-10-12T13:49:08.220Z,19.60
2018-10-12T13:51:42.001Z,20.57
2018-10-12T13:54:16.173Z,20.57
2018-10-12T13:56:54.325Z,22.00
2018-10-12T13:59:29.696Z,21.43
2018-10-12T14:02:03.656Z,22.00
2018-10-12T14:04:37.600Z,19.43
2018-10-12T14:07:11.548Z,21.20
2018-10-12T14:09:45.532Z,21.97
2018-10-12T14:12:19.439Z,19.63
2018-10-12T14:14:53.351Z,21.77
2018-10-12T14:17:27.397Z,21.97
2018-10-12T14:20:01.241Z,21.27
2018-10-12T14:22:35.127Z,24.90
2018-10-12T14:25:09.009Z,22.67
2018-10-12T14:27:42.957Z,23.20
2018-10-12T14:30:17.032Z,18.63
2018-10-12T14:32:50.974Z,21.03
2018-10-12T14:35:24.948Z,20.20
2018-10-12T14:37:59.046Z,19.50
2018-10-12T14:40:32.939Z,19.93
2018-10-12T14:43:06.853Z,20.23
2018-10-12T14:45:40.808Z,23.70
2018-10-12T14:48:14.766Z,21.13
2018-10-12T14:50:48.625Z,22.37
2018-10-12T14:53:22.568Z,22.87
2018-10-12T14:55:56.523Z,21.93
2018-10-12T14:58:30.414Z,21.90
2018-10-12T15:01:04.340Z,23.70
2018-10-12T15:03:38.345Z,22.53
2018-10-12T15:06:12.371Z,23.30
2018-10-12T15:08:46.398Z,24.43
2018-10-12T15:11:21.264Z,23.57
2018-10-12T15:13:55.168Z,23.63
2018-10-12T15:16:28.987Z,20.23
2018-10-12T15:19:03.572Z,23.93
2018-10-12T15:21:37.534Z,22.37
2018-10-12T15:24:11.332Z,22.93
2018-10-12T15:26:45.238Z,23.37
2018-10-12T15:29:19.272Z,25.07
2018-10-12T15:31:53.174Z,26.03
2018-10-12T15:34:27.914Z,26.23
2018-10-12T15:37:02.250Z,26.47
2018-10-12T15:39:36.598Z,24.53
2018-10-12T15:42:13.986Z,24.53
2018-10-12T15:44:51.249Z,26.90
2018-10-12T15:47:33.393Z,24.33
2018-10-12T15:50:20.146Z,25.03
2018-10-12T15:52:54.616Z,25.03
2018-10-12T15:58:45.629Z,24.93
2018-10-12T16:01:22.435Z,23.87
2018-10-12T16:06:38.254Z,26.00
2018-10-12T16:09:12.219Z,28.33
2018-10-12T16:11:46.541Z,27.40
2018-10-12T16:14:21.663Z,24.97
2018-10-12T16:16:55.679Z,26.50
2018-10-12T16:19:30.057Z,27.17
2018-10-12T16:22:03.988Z,25.50
2018-10-12T16:24:42.149Z,25.57
2018-10-12T16:27:20.267Z,24.77
2018-10-12T16:29:55.747Z,26.20
2018-10-12T16:32:32.320Z,26.83
2018-10-12T16:35:08.084Z,25.37
2018-10-12T16:37:43.000Z,26.40
2018-10-12T16:40:18.005Z,26.37
2018-10-12T16:42:53.093Z,27.47
2018-10-12T16:45:27.295Z,26.53
2018-10-12T16:48:01.402Z,25.70
2018-10-12T16:50:35.341Z,28.20
2018-10-12T16:55:51.702Z,26.43
2018-10-12T16:58:29.273Z,26.97
2018-10-12T17:03:51.133Z,26.67
2018-10-12T17:11:50.096Z,24.03
2018-10-12T17:14:24.413Z,24.83
2018-10-12T17:17:00.753Z,26.83
2018-10-12T17:19:38.119Z,24.43
2018-10-12T17:22:12.428Z,27.00
2018-10-12T17:27:52.541Z,28.10
2018-10-12T17:35:19.346Z,27.53
2018-10-12T17:45:50.829Z,29.63
2018-10-12T17:50:16.458Z,26.70
2018-10-12T18:18:47.702Z,30.70
2018-10-12T18:22:10.425Z,27.17
2018-10-12T18:25:50.006Z,30.90
2018-10-12T18:35:27.636Z,29.03
2018-10-12T18:55:44.446Z,31.57
2018-10-12T18:58:38.928Z,28.97
2018-10-12T19:01:29.670Z,29.10
2018-10-12T19:04:30.356Z,29.07
2018-10-12T19:07:13.463Z,29.20
2018-10-12T19:13:08.963Z,29.97
2018-10-12T19:21:39.099Z,27.83
2018-10-12T19:25:22.998Z,28.67
2018-10-12T19:28:00.082Z,28.57
2018-10-12T19:56:48.172Z,28.43
2018-10-12T20:00:10.020Z,26.77
2018-10-12T20:08:43.961Z,29.27
2018-10-12T20:11:29.789Z,28.27
2018-10-12T20:14:07.079Z,27.00
2018-10-12T20:16:58.485Z,26.87
2018-10-12T20:36:11.579Z,28.90
2018-10-12T20:41:55.524Z,27.93
2018-10-12T20:48:07.083Z,28.23
2018-10-12T20:50:47.002Z,27.97
2018-10-12T20:53:27.497Z,29.93
2018-10-12T20:56:12.326Z,27.77
2018-10-12T20:58:54.555Z,28.57
2018-10-12T21:13:46.426Z,27.97
2018-10-12T21:16:23.983Z,30.43
2018-10-12T21:19:03.830Z,29.43
2018-10-12T21:24:36.009Z,27.77
2018-10-12T21:27:49.987Z,28.23
2018-10-12T21:30:29.776Z,31.33
2018-10-12T21:39:19.658Z,28.00
2018-10-12T21:42:24.768Z,30.47
2018-10-12T21:45:07.382Z,30.17
2018-10-12T21:53:40.591Z,31.40
2018-10-12T21:56:25.341Z,28.63
2018-10-12T22:01:58.391Z,29.23
2018-10-12T22:07:27.683Z,30.57
2018-10-12T22:10:07.995Z,30.90
2018-10-12T22:12:43.543Z,28.10
2018-10-12T22:15:20.112Z,29.03
2018-10-12T22:18:00.854Z,28.93
2018-10-12T22:23:36.430Z,29.83
2018-10-12T22:26:19.474Z,28.47
2018-10-12T22:28:56.734Z,30.53
2018-10-12T22:34:17.960Z,31.63
2018-10-12T22:39:44.960Z,30.00
2018-10-12T22:42:21.277Z,30.07
2018-10-12T22:44:55.904Z,29.40
2018-10-12T22:47:30.622Z,30.57
2018-10-12T22:50:06.403Z,31.43
2018-10-12T22:52:41.081Z,31.80
2018-10-12T22:55:25.664Z,30.30
2018-10-12T22:58:03.619Z,35.63
2018-10-12T23:00:40.757Z,30.33
2018-10-12T23:03:15.677Z,30.77
2018-10-12T23:05:50.608Z,32.63
2018-10-12T23:08:25.748Z,29.73
2018-10-12T23:11:00.381Z,32.47
2018-10-12T23:13:39.816Z,32.87
2018-10-12T23:16:13.819Z,31.10
2018-10-12T23:18:52.647Z,30.50
2018-10-12T23:21:27.147Z,30.63
2018-10-12T23:26:40.046Z,30.93
2018-10-12T23:29:14.346Z,31.37
2018-10-12T23:31:48.500Z,32.40
2018-10-12T23:34:23.472Z,30.57
2018-10-12T23:36:57.634Z,32.10
2018-10-12T23:39:31.592Z,31.27
2018-10-12T23:42:05.711Z,30.70
2018-10-12T23:44:39.642Z,32.43
2018-10-12T23:47:13.832Z,30.30
2018-10-12T23:49:48.904Z,31.90
2018-10-12T23:55:01.112Z,29.73
2018-10-12T23:57:41.272Z,31.40
